sensor_id;sensor_type;location;lat;lon;timestamp;pressure;altitude;pressure_sealevel;temperature;humidity
47809;BME280;33573;38.790;-77.084;2024-02-26T00:01:41;101652.05;;;18.74;23.14
47809;BME280;33573;38.790;-77.084;2024-02-26T00:04:11;101652.35;;;18.74;23.19
47809;BME280;33573;38.790;-77.084;2024-02-26T00:06:32;101650.48;;;18.70;23.23
47809;BME280;33573;38.790;-77.084;2024-02-26T00:08:57;101649.24;;;18.69;23.25
47809;BME280;33573;38.790;-77.084;2024-02-26T00:11:26;101650.82;;;18.74;23.20
47809;BME280;33573;38.790;-77.084;2024-02-26T00:13:42;101648.62;;;18.53;23.14
47809;BME280;33573;38.790;-77.084;2024-02-26T00:16:13;101646.42;;;18.64;23.33
47809;BME280;33573;38.790;-77.084;2024-02-26T00:18:43;101649.21;;;18.32;23.77
47809;BME280;33573;38.790;-77.084;2024-02-26T00:21:04;101647.61;;;18.70;23.35
47809;BME280;33573;38.790;-77.084;2024-02-26T00:23:29;101649.26;;;18.77;23.13
47809;BME280;33573;38.790;-77.084;2024-02-26T00:25:50;101647.47;;;18.77;23.08
47809;BME280;33573;38.790;-77.084;2024-02-26T00:28:21;101647.31;;;18.70;23.11
47809;BME280;33573;38.790;-77.084;2024-02-26T00:30:46;101648.03;;;18.66;23.24
47809;BME280;33573;38.790;-77.084;2024-02-26T00:33:16;101649.02;;;18.58;23.35
47809;BME280;33573;38.790;-77.084;2024-02-26T00:35:37;101649.02;;;18.54;23.41
47809;BME280;33573;38.790;-77.084;2024-02-26T00:38:02;101648.70;;;18.43;23.54
47809;BME280;33573;38.790;-77.084;2024-02-26T00:40:32;101642.98;;;18.37;23.60
47809;BME280;33573;38.790;-77.084;2024-02-26T00:42:48;101640.45;;;18.33;23.67
47809;BME280;33573;38.790;-77.084;2024-02-26T00:45:19;101640.23;;;18.31;23.68
47809;BME280;33573;38.790;-77.084;2024-02-26T00:47:48;101645.19;;;18.39;23.58
47809;BME280;33573;38.790;-77.084;2024-02-26T00:50:10;101644.82;;;18.42;23.55
47809;BME280;33573;38.790;-77.084;2024-02-26T00:52:35;101649.50;;;18.55;23.39
47809;BME280;33573;38.790;-77.084;2024-02-26T00:54:55;101645.76;;;18.55;23.36
47809;BME280;33573;38.790;-77.084;2024-02-26T00:57:26;101643.17;;;18.52;23.64
47809;BME280;33573;38.790;-77.084;2024-02-26T00:59:51;101641.11;;;18.39;23.55
47809;BME280;33573;38.790;-77.084;2024-02-26T01:02:21;101645.70;;;18.40;23.47
47809;BME280;33573;38.790;-77.084;2024-02-26T01:04:42;101643.03;;;18.45;23.43
47809;BME280;33573;38.790;-77.084;2024-02-26T01:07:08;101645.17;;;18.37;23.50
47809;BME280;33573;38.790;-77.084;2024-02-26T01:09:37;101645.87;;;18.35;23.49
47809;BME280;33573;38.790;-77.084;2024-02-26T01:11:59;101649.19;;;18.11;23.48
47809;BME280;33573;38.790;-77.084;2024-02-26T01:14:24;101650.95;;;18.26;23.59
47809;BME280;33573;38.790;-77.084;2024-02-26T01:16:54;101648.58;;;18.15;23.87
47809;BME280;33573;38.790;-77.084;2024-02-26T01:19:15;101644.11;;;18.62;23.53
47809;BME280;33573;38.790;-77.084;2024-02-26T01:21:40;101640.33;;;18.47;23.36
47809;BME280;33573;38.790;-77.084;2024-02-26T01:24:10;101640.96;;;18.48;23.33
47809;BME280;33573;38.790;-77.084;2024-02-26T01:26:31;101636.92;;;18.39;23.46
47809;BME280;33573;38.790;-77.084;2024-02-26T01:28:57;101636.59;;;18.24;23.56
47809;BME280;33573;38.790;-77.084;2024-02-26T01:31:17;101641.15;;;18.28;23.55
47809;BME280;33573;38.790;-77.084;2024-02-26T01:33:48;101640.23;;;18.24;23.57
47809;BME280;33573;38.790;-77.084;2024-02-26T01:36:13;101639.25;;;18.19;23.63
47809;BME280;33573;38.790;-77.084;2024-02-26T01:38:43;101636.09;;;18.18;23.63
47809;BME280;33573;38.790;-77.084;2024-02-26T01:40:59;101635.69;;;18.07;23.76
47809;BME280;33573;38.790;-77.084;2024-02-26T01:43:29;101639.02;;;18.29;23.54
47809;BME280;33573;38.790;-77.084;2024-02-26T01:46:00;101638.97;;;18.19;23.63
47809;BME280;33573;38.790;-77.084;2024-02-26T01:48:21;101641.08;;;18.13;23.76
47809;BME280;33573;38.790;-77.084;2024-02-26T01:50:46;101641.52;;;18.44;23.29
47809;BME280;33573;38.790;-77.084;2024-02-26T01:53:15;101639.13;;;18.67;23.21
47809;BME280;33573;38.790;-77.084;2024-02-26T01:55:37;101641.81;;;18.45;23.21
47809;BME280;33573;38.790;-77.084;2024-02-26T01:58:02;101639.74;;;18.35;23.24
47809;BME280;33573;38.790;-77.084;2024-02-26T02:00:28;101641.52;;;18.11;23.22
47809;BME280;33573;38.790;-77.084;2024-02-26T02:02:53;101640.42;;;18.23;23.30
47809;BME280;33573;38.790;-77.084;2024-02-26T02:05:21;101639.77;;;18.24;23.30
47809;BME280;33573;38.790;-77.084;2024-02-26T02:07:48;101638.93;;;18.17;23.32
47809;BME280;33573;38.790;-77.084;2024-02-26T02:10:10;101643.75;;;18.02;23.46
47809;BME280;33573;38.790;-77.084;2024-02-26T02:12:35;101642.26;;;18.69;23.21
47809;BME280;33573;38.790;-77.084;2024-02-26T02:15:05;101645.92;;;18.08;23.48
47809;BME280;33573;38.790;-77.084;2024-02-26T02:17:27;101646.83;;;18.14;23.33
47809;BME280;33573;38.790;-77.084;2024-02-26T02:19:51;101648.12;;;18.42;23.31
47809;BME280;33573;38.790;-77.084;2024-02-26T02:22:17;101650.71;;;18.41;23.39
47809;BME280;33573;38.790;-77.084;2024-02-26T02:24:37;101650.49;;;18.67;23.35
47809;BME280;33573;38.790;-77.084;2024-02-26T02:27:08;101650.39;;;18.36;23.45
47809;BME280;33573;38.790;-77.084;2024-02-26T02:29:33;101651.10;;;18.09;23.48
47809;BME280;33573;38.790;-77.084;2024-02-26T02:32:03;101652.35;;;17.85;23.68
47809;BME280;33573;38.790;-77.084;2024-02-26T02:34:24;101654.50;;;18.11;23.75
47809;BME280;33573;38.790;-77.084;2024-02-26T02:36:52;101654.53;;;17.89;23.88
47809;BME280;33573;38.790;-77.084;2024-02-26T02:39:19;101653.75;;;18.10;23.55
47809;BME280;33573;38.790;-77.084;2024-02-26T02:41:40;101649.35;;;18.20;23.40
47809;BME280;33573;38.790;-77.084;2024-02-26T02:44:06;101646.87;;;18.52;23.32
47809;BME280;33573;38.790;-77.084;2024-02-26T02:46:35;101640.73;;;18.45;23.33
47809;BME280;33573;38.790;-77.084;2024-02-26T02:48:52;101643.07;;;18.40;23.37
47809;BME280;33573;38.790;-77.084;2024-02-26T02:51:17;101640.54;;;18.09;23.43
47809;BME280;33573;38.790;-77.084;2024-02-26T02:53:52;101638.91;;;17.94;23.55
47809;BME280;33573;38.790;-77.084;2024-02-26T02:56:13;101637.16;;;17.95;23.55
47809;BME280;33573;38.790;-77.084;2024-02-26T02:58:39;101637.78;;;17.97;23.59
47809;BME280;33573;38.790;-77.084;2024-02-26T03:01:08;101636.08;;;18.04;23.45
47809;BME280;33573;38.790;-77.084;2024-02-26T03:03:30;101635.82;;;18.31;23.42
47809;BME280;33573;38.790;-77.084;2024-02-26T03:05:55;101632.73;;;18.36;23.40
47809;BME280;33573;38.790;-77.084;2024-02-26T03:08:25;101630.99;;;18.39;23.36
47809;BME280;33573;38.790;-77.084;2024-02-26T03:10:46;101633.40;;;18.13;23.36
47809;BME280;33573;38.790;-77.084;2024-02-26T03:13:11;101634.65;;;18.33;23.41
47809;BME280;33573;38.790;-77.084;2024-02-26T03:15:32;101631.42;;;18.51;23.45
47809;BME280;33573;38.790;-77.084;2024-02-26T03:18:02;101626.90;;;17.75;23.71
47809;BME280;33573;38.790;-77.084;2024-02-26T03:20:28;101631.65;;;17.82;23.65
47809;BME280;33573;38.790;-77.084;2024-02-26T03:22:57;101628.32;;;18.11;23.61
47809;BME280;33573;38.790;-77.084;2024-02-26T03:25:19;101626.68;;;18.01;23.59
47809;BME280;33573;38.790;-77.084;2024-02-26T03:27:44;101629.07;;;17.86;23.91
47809;BME280;33573;38.790;-77.084;2024-02-26T03:30:14;101628.74;;;17.58;24.10
47809;BME280;33573;38.790;-77.084;2024-02-26T03:32:35;101630.50;;;17.70;23.96
47809;BME280;33573;38.790;-77.084;2024-02-26T03:35:00;101629.90;;;17.51;24.14
47809;BME280;33573;38.790;-77.084;2024-02-26T03:37:30;101622.09;;;17.69;23.97
47809;BME280;33573;38.790;-77.084;2024-02-26T03:39:51;101627.25;;;17.64;23.96
47809;BME280;33573;38.790;-77.084;2024-02-26T03:42:17;101633.14;;;17.50;24.01
47809;BME280;33573;38.790;-77.084;2024-02-26T03:44:46;101633.00;;;17.37;24.13
47809;BME280;33573;38.790;-77.084;2024-02-26T03:47:08;101630.89;;;17.60;23.89
47809;BME280;33573;38.790;-77.084;2024-02-26T03:49:33;101628.35;;;17.54;23.92
47809;BME280;33573;38.790;-77.084;2024-02-26T03:52:03;101626.05;;;17.40;24.01
47809;BME280;33573;38.790;-77.084;2024-02-26T03:54:24;101616.69;;;17.49;23.88
47809;BME280;33573;38.790;-77.084;2024-02-26T03:56:50;101611.30;;;17.56;23.84
47809;BME280;33573;38.790;-77.084;2024-02-26T03:59:10;101608.89;;;17.54;23.80
47809;BME280;33573;38.790;-77.084;2024-02-26T04:01:36;101604.97;;;17.43;23.85
47809;BME280;33573;38.790;-77.084;2024-02-26T04:04:06;101600.99;;;17.53;23.79
47809;BME280;33573;38.790;-77.084;2024-02-26T04:06:36;101597.08;;;17.94;23.61
47809;BME280;33573;38.790;-77.084;2024-02-26T04:08:57;101601.51;;;17.98;23.60
47809;BME280;33573;38.790;-77.084;2024-02-26T04:11:22;101595.76;;;17.56;23.67
47809;BME280;33573;38.790;-77.084;2024-02-26T04:13:52;101594.06;;;17.49;23.79
47809;BME280;33573;38.790;-77.084;2024-02-26T04:16:13;101589.48;;;17.58;23.60
47809;BME280;33573;38.790;-77.084;2024-02-26T04:18:39;101582.89;;;17.36;23.78
47809;BME280;33573;38.790;-77.084;2024-02-26T04:21:04;101580.17;;;17.16;23.93
47809;BME280;33573;38.790;-77.084;2024-02-26T04:23:30;101576.02;;;17.12;23.96
47809;BME280;33573;38.790;-77.084;2024-02-26T04:25:55;101575.81;;;17.05;24.09
47809;BME280;33573;38.790;-77.084;2024-02-26T04:28:25;101572.50;;;16.98;24.08
47809;BME280;33573;38.790;-77.084;2024-02-26T04:30:47;101570.33;;;17.01;24.28
47809;BME280;33573;38.790;-77.084;2024-02-26T04:33:12;101565.65;;;17.00;24.27
47809;BME280;33573;38.790;-77.084;2024-02-26T04:35:32;101563.48;;;16.61;24.37
47809;BME280;33573;38.790;-77.084;2024-02-26T04:38:03;101561.60;;;16.85;24.37
47809;BME280;33573;38.790;-77.084;2024-02-26T04:40:28;101559.20;;;16.82;24.39
47809;BME280;33573;38.790;-77.084;2024-02-26T04:42:58;101551.26;;;16.84;24.12
47809;BME280;33573;38.790;-77.084;2024-02-26T04:45:19;101551.05;;;16.88;24.28
47809;BME280;33573;38.790;-77.084;2024-02-26T04:47:45;101551.70;;;17.16;24.24
47809;BME280;33573;38.790;-77.084;2024-02-26T04:50:14;101552.23;;;16.88;24.51
47809;BME280;33573;38.790;-77.084;2024-02-26T04:52:36;101548.02;;;16.95;24.39
47809;BME280;33573;38.790;-77.084;2024-02-26T04:55:01;101548.47;;;16.58;24.46
47809;BME280;33573;38.790;-77.084;2024-02-26T04:57:31;101548.61;;;17.08;24.23
47809;BME280;33573;38.790;-77.084;2024-02-26T04:59:52;101549.82;;;17.14;24.09
47809;BME280;33573;38.790;-77.084;2024-02-26T05:02:17;101546.40;;;16.60;24.31
47809;BME280;33573;38.790;-77.084;2024-02-26T05:04:43;101547.83;;;16.79;24.12
47809;BME280;33573;38.790;-77.084;2024-02-26T05:07:12;101540.70;;;16.27;24.36
47809;BME280;33573;38.790;-77.084;2024-02-26T05:09:34;101537.21;;;16.45;24.41
47809;BME280;33573;38.790;-77.084;2024-02-26T05:11:59;101534.11;;;16.44;24.38
47809;BME280;33573;38.790;-77.084;2024-02-26T05:14:25;101534.04;;;16.61;24.43
47809;BME280;33573;38.790;-77.084;2024-02-26T05:16:45;101532.70;;;16.80;24.22
47809;BME280;33573;38.790;-77.084;2024-02-26T05:19:16;101530.42;;;16.58;24.18
47809;BME280;33573;38.790;-77.084;2024-02-26T05:21:45;101537.54;;;16.81;24.19
47809;BME280;33573;38.790;-77.084;2024-02-26T05:24:07;101537.91;;;16.65;24.27
47809;BME280;33573;38.790;-77.084;2024-02-26T05:26:32;101538.38;;;16.41;24.32
47809;BME280;33573;38.790;-77.084;2024-02-26T05:29:02;101535.03;;;16.52;24.38
47809;BME280;33573;38.790;-77.084;2024-02-26T05:31:23;101526.88;;;16.40;24.44
47809;BME280;33573;38.790;-77.084;2024-02-26T05:33:48;101522.37;;;16.33;24.54
47809;BME280;33573;38.790;-77.084;2024-02-26T05:36:18;101516.33;;;16.36;24.21
47809;BME280;33573;38.790;-77.084;2024-02-26T05:38:39;101515.65;;;16.24;24.35
47809;BME280;33573;38.790;-77.084;2024-02-26T05:41:05;101512.81;;;16.39;24.36
47809;BME280;33573;38.790;-77.084;2024-02-26T05:43:35;101514.86;;;16.34;24.44
47809;BME280;33573;38.790;-77.084;2024-02-26T05:45:56;101514.43;;;16.30;24.44
47809;BME280;33573;38.790;-77.084;2024-02-26T05:48:22;101509.40;;;16.40;24.35
47809;BME280;33573;38.790;-77.084;2024-02-26T05:50:51;101507.85;;;16.32;24.41
47809;BME280;33573;38.790;-77.084;2024-02-26T05:53:07;101509.97;;;16.47;24.28
47809;BME280;33573;38.790;-77.084;2024-02-26T05:55:38;101508.40;;;16.36;24.37
47809;BME280;33573;38.790;-77.084;2024-02-26T05:58:07;101507.40;;;15.99;24.24
47809;BME280;33573;38.790;-77.084;2024-02-26T06:00:29;101509.37;;;16.55;24.13
47809;BME280;33573;38.790;-77.084;2024-02-26T06:02:54;101502.39;;;16.01;24.38
47809;BME280;33573;38.790;-77.084;2024-02-26T06:05:24;101500.74;;;16.31;24.32
47809;BME280;33573;38.790;-77.084;2024-02-26T06:07:45;101497.32;;;16.37;24.23
47809;BME280;33573;38.790;-77.084;2024-02-26T06:10:11;101495.73;;;16.17;24.41
47809;BME280;33573;38.790;-77.084;2024-02-26T06:12:40;101491.02;;;16.20;24.37
47809;BME280;33573;38.790;-77.084;2024-02-26T06:15:02;101491.20;;;15.87;24.49
47809;BME280;33573;38.790;-77.084;2024-02-26T06:17:27;101491.48;;;16.15;24.43
47809;BME280;33573;38.790;-77.084;2024-02-26T06:19:57;101489.90;;;16.21;24.35
47809;BME280;33573;38.790;-77.084;2024-02-26T06:22:18;101489.72;;;15.91;24.39
47809;BME280;33573;38.790;-77.084;2024-02-26T06:24:43;101488.89;;;16.01;24.50
47809;BME280;33573;38.790;-77.084;2024-02-26T06:27:13;101486.22;;;16.17;24.41
47809;BME280;33573;38.790;-77.084;2024-02-26T06:29:29;101484.12;;;16.00;24.44
47809;BME280;33573;38.790;-77.084;2024-02-26T06:32:00;101487.68;;;16.21;24.29
47809;BME280;33573;38.790;-77.084;2024-02-26T06:34:20;101479.67;;;16.19;24.31
47809;BME280;33573;38.790;-77.084;2024-02-26T06:36:51;101477.53;;;15.85;24.37
47809;BME280;33573;38.790;-77.084;2024-02-26T06:39:16;101473.52;;;16.02;24.45
47809;BME280;33573;38.790;-77.084;2024-02-26T06:41:46;101475.32;;;16.04;24.42
47809;BME280;33573;38.790;-77.084;2024-02-26T06:44:07;101477.48;;;16.01;24.44
47809;BME280;33573;38.790;-77.084;2024-02-26T06:46:33;101472.41;;;16.00;24.42
47809;BME280;33573;38.790;-77.084;2024-02-26T06:49:02;101462.09;;;15.91;24.49
47809;BME280;33573;38.790;-77.084;2024-02-26T06:51:24;101460.96;;;15.88;24.49
47809;BME280;33573;38.790;-77.084;2024-02-26T06:53:49;101461.09;;;16.00;24.41
47809;BME280;33573;38.790;-77.084;2024-02-26T06:56:19;101460.63;;;16.17;24.46
47809;BME280;33573;38.790;-77.084;2024-02-26T06:58:40;101459.86;;;15.90;24.43
47809;BME280;33573;38.790;-77.084;2024-02-26T07:01:00;101455.65;;;15.85;24.46
47809;BME280;33573;38.790;-77.084;2024-02-26T07:03:35;101451.85;;;16.19;24.36
47809;BME280;33573;38.790;-77.084;2024-02-26T07:05:51;101457.71;;;16.00;24.32
47809;BME280;33573;38.790;-77.084;2024-02-26T07:08:22;101451.83;;;15.77;24.51
47809;BME280;33573;38.790;-77.084;2024-02-26T07:10:42;101452.78;;;15.75;24.57
47809;BME280;33573;38.790;-77.084;2024-02-26T07:13:13;101447.64;;;15.72;24.60
47809;BME280;33573;38.790;-77.084;2024-02-26T07:15:38;101445.59;;;15.86;24.46
47809;BME280;33573;38.790;-77.084;2024-02-26T07:18:08;101446.55;;;15.81;24.47
47809;BME280;33573;38.790;-77.084;2024-02-26T07:20:30;101443.67;;;15.63;24.65
47809;BME280;33573;38.790;-77.084;2024-02-26T07:22:55;101440.74;;;15.74;24.56
47809;BME280;33573;38.790;-77.084;2024-02-26T07:25:20;101435.66;;;15.89;24.42
47809;BME280;33573;38.790;-77.084;2024-02-26T07:27:50;101433.65;;;15.83;24.45
47809;BME280;33573;38.790;-77.084;2024-02-26T07:30:12;101423.44;;;15.83;24.43
47809;BME280;33573;38.790;-77.084;2024-02-26T07:32:37;101419.64;;;15.81;24.45
47809;BME280;33573;38.790;-77.084;2024-02-26T07:35:07;101421.96;;;15.98;24.37
47809;BME280;33573;38.790;-77.084;2024-02-26T07:37:28;101425.72;;;15.69;24.55
47809;BME280;33573;38.790;-77.084;2024-02-26T07:39:48;101420.85;;;15.75;24.50
47809;BME280;33573;38.790;-77.084;2024-02-26T07:42:23;101431.45;;;15.71;24.54
47809;BME280;33573;38.790;-77.084;2024-02-26T07:44:44;101427.56;;;15.73;24.56
47809;BME280;33573;38.790;-77.084;2024-02-26T07:47:10;101425.29;;;15.81;24.42
47809;BME280;33573;38.790;-77.084;2024-02-26T07:49:39;101422.78;;;15.65;24.59
47809;BME280;33573;38.790;-77.084;2024-02-26T07:52:01;101423.73;;;15.70;24.58
47809;BME280;33573;38.790;-77.084;2024-02-26T07:54:26;101422.09;;;15.63;24.65
47809;BME280;33573;38.790;-77.084;2024-02-26T07:56:56;101418.19;;;15.86;24.64
47809;BME280;33573;38.790;-77.084;2024-02-26T07:59:12;101415.09;;;15.57;24.70
47809;BME280;33573;38.790;-77.084;2024-02-26T08:01:43;101407.64;;;16.09;24.66
47809;BME280;33573;38.790;-77.084;2024-02-26T08:04:08;101408.70;;;15.94;24.55
47809;BME280;33573;38.790;-77.084;2024-02-26T08:06:33;101405.31;;;15.67;24.61
47809;BME280;33573;38.790;-77.084;2024-02-26T08:08:59;101400.34;;;15.68;24.56
47809;BME280;33573;38.790;-77.084;2024-02-26T08:11:29;101408.77;;;15.65;24.61
47809;BME280;33573;38.790;-77.084;2024-02-26T08:13:45;101406.49;;;15.82;24.68
47809;BME280;33573;38.790;-77.084;2024-02-26T08:16:16;101404.89;;;15.96;24.57
47809;BME280;33573;38.790;-77.084;2024-02-26T08:18:45;101415.65;;;15.70;24.53
47809;BME280;33573;38.790;-77.084;2024-02-26T08:21:07;101419.90;;;15.59;24.67
47809;BME280;33573;38.790;-77.084;2024-02-26T08:23:32;101413.28;;;15.59;24.68
47809;BME280;33573;38.790;-77.084;2024-02-26T08:26:02;101411.20;;;15.76;24.51
47809;BME280;33573;38.790;-77.084;2024-02-26T08:28:23;101410.69;;;15.77;24.52
47809;BME280;33573;38.790;-77.084;2024-02-26T08:30:48;101409.53;;;15.75;24.51
47809;BME280;33573;38.790;-77.084;2024-02-26T08:33:18;101407.24;;;15.73;24.55
47809;BME280;33573;38.790;-77.084;2024-02-26T08:35:34;101406.20;;;15.64;24.63
47809;BME280;33573;38.790;-77.084;2024-02-26T08:38:00;101414.65;;;15.73;24.57
47809;BME280;33573;38.790;-77.084;2024-02-26T08:40:34;101415.64;;;15.58;24.71
47809;BME280;33573;38.790;-77.084;2024-02-26T08:42:51;101420.33;;;15.56;24.70
47809;BME280;33573;38.790;-77.084;2024-02-26T08:45:21;101414.70;;;15.90;24.59
47809;BME280;33573;38.790;-77.084;2024-02-26T08:47:51;101409.61;;;15.65;24.61
47809;BME280;33573;38.790;-77.084;2024-02-26T08:50:13;101406.00;;;15.64;24.63
47809;BME280;33573;38.790;-77.084;2024-02-26T08:52:33;101404.57;;;15.89;24.62
47809;BME280;33573;38.790;-77.084;2024-02-26T08:55:08;101399.46;;;15.75;24.51
47809;BME280;33573;38.790;-77.084;2024-02-26T08:57:29;101400.31;;;15.87;24.65
47809;BME280;33573;38.790;-77.084;2024-02-26T08:59:54;101398.58;;;15.43;24.57
47809;BME280;33573;38.790;-77.084;2024-02-26T09:02:24;101398.29;;;15.88;24.65
47809;BME280;33573;38.790;-77.084;2024-02-26T09:04:45;101393.90;;;15.64;24.59
47809;BME280;33573;38.790;-77.084;2024-02-26T09:07:11;101394.70;;;15.80;24.71
47809;BME280;33573;38.790;-77.084;2024-02-26T09:09:40;101394.26;;;15.65;24.61
47809;BME280;33573;38.790;-77.084;2024-02-26T09:12:02;101393.69;;;15.58;24.68
47809;BME280;33573;38.790;-77.084;2024-02-26T09:14:27;101396.69;;;15.83;24.64
47809;BME280;33573;38.790;-77.084;2024-02-26T09:16:52;101393.98;;;15.66;24.62
47809;BME280;33573;38.790;-77.084;2024-02-26T09:19:18;101395.53;;;16.05;24.44
47809;BME280;33573;38.790;-77.084;2024-02-26T09:21:44;101392.39;;;15.68;24.55
47809;BME280;33573;38.790;-77.084;2024-02-26T09:24:13;101387.30;;;15.82;24.66
47809;BME280;33573;38.790;-77.084;2024-02-26T09:26:34;101384.75;;;15.48;24.73
47809;BME280;33573;38.790;-77.084;2024-02-26T09:29:00;101389.29;;;15.45;24.76
47809;BME280;33573;38.790;-77.084;2024-02-26T09:31:25;101397.50;;;15.74;24.71
47809;BME280;33573;38.790;-77.084;2024-02-26T09:33:55;101390.58;;;15.38;24.84
47809;BME280;33573;38.790;-77.084;2024-02-26T09:36:16;101394.78;;;15.61;24.61
47809;BME280;33573;38.790;-77.084;2024-02-26T09:38:42;101393.57;;;16.06;24.62
47809;BME280;33573;38.790;-77.084;2024-02-26T09:41:13;101393.85;;;15.90;24.52
47809;BME280;33573;38.790;-77.084;2024-02-26T09:43:35;101398.91;;;15.48;24.70
47809;BME280;33573;38.790;-77.084;2024-02-26T09:45:58;101393.22;;;15.93;24.73
47809;BME280;33573;38.790;-77.084;2024-02-26T09:48:24;101396.33;;;15.64;24.56
47809;BME280;33573;38.790;-77.084;2024-02-26T09:50:49;101396.17;;;15.81;24.61
47809;BME280;33573;38.790;-77.084;2024-02-26T09:53:15;101393.67;;;15.70;24.72
47809;BME280;33573;38.790;-77.084;2024-02-26T09:55:44;101396.98;;;15.67;24.72
47809;BME280;33573;38.790;-77.084;2024-02-26T09:58:06;101396.50;;;15.50;24.69
47809;BME280;33573;38.790;-77.084;2024-02-26T10:00:31;101395.12;;;15.35;24.81
47809;BME280;33573;38.790;-77.084;2024-02-26T10:02:58;101386.44;;;15.37;24.80
47809;BME280;33573;38.790;-77.084;2024-02-26T10:05:22;101389.51;;;15.62;24.60
47809;BME280;33573;38.790;-77.084;2024-02-26T10:07:48;101389.18;;;16.13;24.27
47809;BME280;33573;38.790;-77.084;2024-02-26T10:10:09;101384.36;;;16.18;24.05
47809;BME280;33573;38.790;-77.084;2024-02-26T10:12:39;101387.08;;;16.46;23.82
47809;BME280;33573;38.790;-77.084;2024-02-26T10:15:04;101390.11;;;16.65;23.68
47809;BME280;33573;38.790;-77.084;2024-02-26T10:17:34;101388.21;;;16.82;23.58
47809;BME280;33573;38.790;-77.084;2024-02-26T10:19:55;101391.70;;;16.59;23.62
47809;BME280;33573;38.790;-77.084;2024-02-26T10:22:22;101393.07;;;16.71;23.57
47809;BME280;33573;38.790;-77.084;2024-02-26T10:24:50;101394.93;;;17.08;23.51
47809;BME280;33573;38.790;-77.084;2024-02-26T10:27:11;101397.17;;;16.87;23.53
47809;BME280;33573;38.790;-77.084;2024-02-26T10:29:37;101396.24;;;16.69;23.51
47809;BME280;33573;38.790;-77.084;2024-02-26T10:32:07;101394.02;;;17.02;23.48
47809;BME280;33573;38.790;-77.084;2024-02-26T10:34:28;101390.25;;;17.14;23.42
47809;BME280;33573;38.790;-77.084;2024-02-26T10:36:54;101391.44;;;16.94;23.47
47809;BME280;33573;38.790;-77.084;2024-02-26T10:39:23;101394.82;;;17.03;23.44
47809;BME280;33573;38.790;-77.084;2024-02-26T10:41:45;101392.35;;;17.09;23.42
47809;BME280;33573;38.790;-77.084;2024-02-26T10:44:11;101393.37;;;17.36;23.42
47809;BME280;33573;38.790;-77.084;2024-02-26T10:46:40;101401.06;;;17.16;23.43
47809;BME280;33573;38.790;-77.084;2024-02-26T10:49:01;101394.54;;;17.18;23.47
47809;BME280;33573;38.790;-77.084;2024-02-26T10:51:28;101399.45;;;17.21;23.47
47809;BME280;33573;38.790;-77.084;2024-02-26T10:53:57;101401.50;;;17.27;23.48
47809;BME280;33573;38.790;-77.084;2024-02-26T10:56:18;101401.27;;;17.26;23.56
47809;BME280;33573;38.790;-77.084;2024-02-26T10:58:43;101399.56;;;17.39;23.69
47809;BME280;33573;38.790;-77.084;2024-02-26T11:01:12;101393.32;;;17.18;23.69
47809;BME280;33573;38.790;-77.084;2024-02-26T11:03:34;101393.62;;;17.27;23.63
47809;BME280;33573;38.790;-77.084;2024-02-26T11:06:01;101385.64;;;17.36;23.64
47809;BME280;33573;38.790;-77.084;2024-02-26T11:08:25;101385.89;;;17.41;23.57
47809;BME280;33573;38.790;-77.084;2024-02-26T11:10:53;101389.09;;;17.45;23.58
47809;BME280;33573;38.790;-77.084;2024-02-26T11:13:18;101382.54;;;17.51;23.63
47809;BME280;33573;38.790;-77.084;2024-02-26T11:15:46;101385.16;;;17.16;23.76
47809;BME280;33573;38.790;-77.084;2024-02-26T11:18:07;101399.07;;;17.26;23.90
47809;BME280;33573;38.790;-77.084;2024-02-26T11:20:32;101398.86;;;17.53;23.89
47809;BME280;33573;38.790;-77.084;2024-02-26T11:23:01;101397.67;;;17.42;23.85
47809;BME280;33573;38.790;-77.084;2024-02-26T11:25:23;101400.68;;;17.51;23.75
47809;BME280;33573;38.790;-77.084;2024-02-26T11:27:52;101403.11;;;17.54;23.70
47809;BME280;33573;38.790;-77.084;2024-02-26T11:30:18;101404.11;;;17.62;23.74
47809;BME280;33573;38.790;-77.084;2024-02-26T11:32:39;101403.84;;;17.49;23.97
47809;BME280;33573;38.790;-77.084;2024-02-26T11:35:06;101401.92;;;17.40;23.94
47809;BME280;33573;38.790;-77.084;2024-02-26T11:37:34;101406.47;;;17.36;24.00
47809;BME280;33573;38.790;-77.084;2024-02-26T11:39:59;101409.67;;;17.10;23.99
47809;BME280;33573;38.790;-77.084;2024-02-26T11:42:24;101410.53;;;17.49;24.10
47809;BME280;33573;38.790;-77.084;2024-02-26T11:44:42;101409.64;;;17.54;23.93
47809;BME280;33573;38.790;-77.084;2024-02-26T11:47:18;101415.69;;;17.47;23.92
47809;BME280;33573;38.790;-77.084;2024-02-26T11:49:38;101414.68;;;17.30;23.90
47809;BME280;33573;38.790;-77.084;2024-02-26T11:52:07;101414.16;;;17.47;24.01
47809;BME280;33573;38.790;-77.084;2024-02-26T11:56:54;101415.40;;;17.45;24.07
47809;BME280;33573;38.790;-77.084;2024-02-26T11:59:37;101416.83;;;17.10;24.19
47809;BME280;33573;38.790;-77.084;2024-02-26T12:01:49;101418.78;;;17.38;24.13
47809;BME280;33573;38.790;-77.084;2024-02-26T12:04:14;101419.63;;;17.51;24.03
47809;BME280;33573;38.790;-77.084;2024-02-26T12:06:44;101422.74;;;17.54;24.00
47809;BME280;33573;38.790;-77.084;2024-02-26T12:09:06;101425.31;;;17.27;24.09
47809;BME280;33573;38.790;-77.084;2024-02-26T12:11:28;101425.25;;;17.72;24.16
47809;BME280;33573;38.790;-77.084;2024-02-26T12:13:52;101423.33;;;17.45;24.20
47809;BME280;33573;38.790;-77.084;2024-02-26T12:18:45;101422.62;;;17.31;24.06
47809;BME280;33573;38.790;-77.084;2024-02-26T12:21:10;101424.10;;;17.33;24.00
47809;BME280;33573;38.790;-77.084;2024-02-26T12:23:30;101422.51;;;17.36;24.06
47809;BME280;33573;38.790;-77.084;2024-02-26T12:25:59;101421.06;;;17.23;23.95